createdAt,value
2022-10-23T00:02:05.735Z,15.52
2022-10-23T00:04:34.633Z,8.87
2022-10-23T00:07:02.368Z,6.22
2022-10-23T00:09:30.019Z,4.30
2022-10-23T00:11:57.749Z,7.37
2022-10-23T00:14:25.516Z,5.47
2022-10-23T00:16:53.261Z,7.25
2022-10-23T00:19:20.920Z,3.83
2022-10-23T00:21:48.643Z,6.82
2022-10-23T00:24:17.533Z,6.25
2022-10-23T00:26:45.295Z,6.78
2022-10-23T00:29:13.015Z,7.67
2022-10-23T00:31:40.695Z,17.45
2022-10-23T00:34:08.936Z,12.75
2022-10-23T00:36:36.910Z,10.40
2022-10-23T00:39:05.045Z,15.23
2022-10-23T00:41:32.929Z,6.90
2022-10-23T00:44:00.743Z,9.90
2022-10-23T00:46:28.533Z,10.93
2022-10-23T00:48:56.336Z,6.72
2022-10-23T00:51:24.098Z,4.30
2022-10-23T00:54:01.162Z,5.77
2022-10-23T00:56:40.118Z,17.98
2022-10-23T00:59:07.754Z,9.43
2022-10-23T01:01:35.549Z,9.37
2022-10-23T01:04:03.387Z,8.35
2022-10-23T01:06:34.296Z,8.50
2022-10-23T01:09:34.526Z,5.27
2022-10-23T01:12:15.374Z,13.98
2022-10-23T01:14:43.175Z,15.15
2022-10-23T01:17:13.351Z,32.28
2022-10-23T01:19:52.706Z,25.23
2022-10-23T01:22:39.298Z,7.65
2022-10-23T01:25:25.497Z,21.65
2022-10-23T01:27:54.033Z,6.43
2022-10-23T01:30:21.809Z,8.60
2022-10-23T01:32:50.397Z,11.77
2022-10-23T01:35:20.538Z,53.23
2022-10-23T01:37:51.294Z,78.20
2022-10-23T01:40:36.626Z,47.08
2022-10-23T01:43:08.159Z,18.40
2022-10-23T01:45:40.213Z,8.57
2022-10-23T01:48:08.051Z,102.28
2022-10-23T01:50:35.749Z,72.03
2022-10-23T01:53:04.486Z,119.40
2022-10-23T01:55:32.722Z,61.25
2022-10-23T01:58:00.847Z,101.85
2022-10-23T02:00:28.518Z,173.00
2022-10-23T02:02:56.364Z,94.07
2022-10-23T02:05:27.474Z,49.33
2022-10-23T02:07:55.314Z,147.50
2022-10-23T02:10:23.011Z,40.73
2022-10-23T02:13:09.499Z,302.40
2022-10-23T02:15:40.692Z,247.95
2022-10-23T02:18:09.916Z,210.53
2022-10-23T02:20:53.975Z,168.20
2022-10-23T02:23:22.739Z,194.45
2022-10-23T02:25:54.922Z,139.53
2022-10-23T02:28:24.999Z,122.05
2022-10-23T02:30:52.649Z,151.07
2022-10-23T02:33:20.417Z,142.98
2022-10-23T02:35:48.154Z,218.27
2022-10-23T02:38:38.100Z,80.53
2022-10-23T02:41:20.888Z,185.35
2022-10-23T02:43:51.983Z,143.23
2022-10-23T02:46:19.627Z,229.93
2022-10-23T02:48:53.644Z,219.35
2022-10-23T02:51:53.792Z,186.67
2022-10-23T02:54:24.683Z,222.65
2022-10-23T02:56:54.663Z,65.75
2022-10-23T02:59:28.486Z,95.25
2022-10-23T03:01:57.196Z,89.63
2022-10-23T03:04:25.149Z,50.83
2022-10-23T03:06:52.811Z,58.40
2022-10-23T03:09:20.672Z,50.67
2022-10-23T03:11:48.405Z,38.92
2022-10-23T03:14:16.052Z,15.70
2022-10-23T03:16:43.796Z,55.17
2022-10-23T03:21:45.194Z,78.18
2022-10-23T03:24:12.856Z,100.03
2022-10-23T03:26:40.582Z,136.57
2022-10-23T03:29:08.262Z,123.22
2022-10-23T03:31:36.130Z,119.03
2022-10-23T03:34:06.268Z,78.90
2022-10-23T03:36:35.851Z,90.55
2022-10-23T03:39:04.369Z,121.53
2022-10-23T03:41:32.133Z,71.13
2022-10-23T03:43:59.974Z,71.60
2022-10-23T03:46:27.679Z,112.68
2022-10-23T03:48:59.154Z,84.97
2022-10-23T03:51:27.030Z,135.80
2022-10-23T03:53:54.794Z,107.85
2022-10-23T03:56:22.545Z,91.65
2022-10-23T03:58:50.323Z,131.20
2022-10-23T04:01:18.132Z,90.85
2022-10-23T04:03:45.872Z,96.38
2022-10-23T04:06:13.688Z,89.97
2022-10-23T04:08:44.851Z,78.28
2022-10-23T04:11:12.560Z,81.50
2022-10-23T04:13:40.239Z,37.30
2022-10-23T04:16:08.155Z,52.10
2022-10-23T04:18:35.871Z,80.85
2022-10-23T04:21:03.508Z,48.47
2022-10-23T04:23:31.228Z,77.63
2022-10-23T04:25:59.027Z,41.70
2022-10-23T04:28:26.812Z,50.85
2022-10-23T04:30:54.534Z,128.83
2022-10-23T04:33:22.318Z,131.38
2022-10-23T04:35:49.962Z,110.93
2022-10-23T04:38:17.666Z,124.50
2022-10-23T04:40:45.347Z,115.13
2022-10-23T04:43:13.129Z,35.55
2022-10-23T04:45:40.896Z,88.10
2022-10-23T04:48:08.589Z,51.67
2022-10-23T04:50:36.332Z,20.25
2022-10-23T04:53:03.991Z,8.10
2022-10-23T04:55:31.747Z,10.87
2022-10-23T04:57:59.393Z,12.52
2022-10-23T05:00:27.183Z,9.95
2022-10-23T05:02:54.974Z,9.15
2022-10-23T05:05:22.734Z,8.73
2022-10-23T05:07:50.507Z,7.57
2022-10-23T05:10:18.146Z,7.50
2022-10-23T05:12:45.873Z,10.20
2022-10-23T05:15:13.532Z,7.78
2022-10-23T05:17:42.502Z,7.28
2022-10-23T05:20:12.838Z,10.17
2022-10-23T05:22:40.898Z,12.60
2022-10-23T05:25:08.828Z,12.15
2022-10-23T05:27:36.556Z,9.48
2022-10-23T05:30:04.799Z,9.40
2022-10-23T05:32:32.622Z,8.60
2022-10-23T05:35:00.453Z,13.82
2022-10-23T05:37:28.234Z,11.07
2022-10-23T05:39:55.954Z,12.95
2022-10-23T05:42:23.589Z,10.80
2022-10-23T05:44:52.326Z,12.13
2022-10-23T05:47:20.024Z,16.55
2022-10-23T05:49:47.802Z,8.18
2022-10-23T05:52:15.510Z,12.55
2022-10-23T05:54:43.236Z,11.20
2022-10-23T05:57:10.912Z,9.65
2022-10-23T05:59:38.626Z,11.75
2022-10-23T06:02:06.406Z,9.50
2022-10-23T06:04:35.359Z,13.32
2022-10-23T06:07:03.413Z,12.70
2022-10-23T06:09:31.094Z,13.27
2022-10-23T06:11:58.768Z,14.65
2022-10-23T06:14:26.476Z,10.57
2022-10-23T06:16:54.196Z,13.32
2022-10-23T06:19:21.949Z,11.63
2022-10-23T06:21:49.665Z,12.48
2022-10-23T06:24:17.342Z,9.65
2022-10-23T06:26:45.744Z,11.23
2022-10-23T06:29:13.393Z,8.82
2022-10-23T06:31:41.129Z,8.82
2022-10-23T06:34:09.935Z,15.00
2022-10-23T06:36:38.270Z,10.57
2022-10-23T06:39:06.172Z,14.07
2022-10-23T06:41:33.956Z,9.60
2022-10-23T06:44:01.978Z,12.23
2022-10-23T06:46:32.991Z,11.65
2022-10-23T06:49:00.771Z,12.10
2022-10-23T06:51:29.881Z,18.97
2022-10-23T06:53:57.679Z,12.68
2022-10-23T06:56:29.256Z,13.30
2022-10-23T06:58:57.065Z,7.63
2022-10-23T07:01:24.882Z,11.38
2022-10-23T07:03:52.829Z,10.98
2022-10-23T07:06:20.482Z,12.50
2022-10-23T07:08:48.197Z,12.00
2022-10-23T07:11:15.841Z,9.77
2022-10-23T07:13:44.654Z,12.73
2022-10-23T07:16:19.739Z,17.33
2022-10-23T07:18:47.705Z,14.55
2022-10-23T07:21:15.497Z,15.88
2022-10-23T07:23:43.209Z,12.20
2022-10-23T07:26:11.931Z,17.45
2022-10-23T07:28:41.489Z,13.32
2022-10-23T07:31:09.620Z,21.45
2022-10-23T07:33:37.356Z,31.00
2022-10-23T07:36:06.028Z,15.32
2022-10-23T07:38:33.705Z,15.93
2022-10-23T07:41:01.526Z,15.60
2022-10-23T07:43:29.448Z,13.55
2022-10-23T07:45:57.273Z,11.65
2022-10-23T07:48:25.005Z,17.87
2022-10-23T07:50:52.738Z,11.80
2022-10-23T07:53:23.639Z,10.95
2022-10-23T07:55:58.060Z,13.52
2022-10-23T07:58:25.867Z,9.00
2022-10-23T08:00:58.780Z,7.97
2022-10-23T08:03:26.991Z,8.45
2022-10-23T08:05:55.014Z,10.47
2022-10-23T08:08:25.762Z,16.30
2022-10-23T08:10:54.026Z,10.20
2022-10-23T08:13:21.793Z,9.37
2022-10-23T08:15:51.791Z,10.77
2022-10-23T08:18:19.536Z,10.38
2022-10-23T08:20:47.716Z,7.80
2022-10-23T08:23:17.084Z,10.70
2022-10-23T08:25:44.811Z,7.55
2022-10-23T08:28:12.582Z,11.85
2022-10-23T08:30:40.305Z,7.33
2022-10-23T08:33:08.170Z,13.95
2022-10-23T08:35:38.905Z,12.63
2022-10-23T08:38:06.687Z,15.73
2022-10-23T08:40:34.441Z,10.32
2022-10-23T08:43:22.342Z,13.55
2022-10-23T08:45:51.191Z,14.02
2022-10-23T08:48:27.469Z,8.83
2022-10-23T08:51:02.312Z,16.40
2022-10-23T08:53:44.333Z,10.27
2022-10-23T08:56:23.978Z,12.43
2022-10-23T08:58:53.843Z,10.07
2022-10-23T09:01:30.104Z,17.25
2022-10-23T09:03:57.958Z,8.73
2022-10-23T09:06:31.565Z,5.28
2022-10-23T09:09:05.059Z,9.57
2022-10-23T09:11:40.756Z,7.38
2022-10-23T09:14:27.860Z,8.87
2022-10-23T09:16:55.875Z,11.80
2022-10-23T09:19:27.474Z,9.82
2022-10-23T09:21:55.460Z,10.73
2022-10-23T09:24:23.749Z,13.15
2022-10-23T09:26:52.062Z,9.98
2022-10-23T09:29:26.950Z,8.15
2022-10-23T09:31:59.427Z,9.63
2022-10-23T09:34:28.023Z,10.30
2022-10-23T09:36:56.920Z,10.38
2022-10-23T09:39:34.462Z,8.13
2022-10-23T09:42:05.257Z,9.95
2022-10-23T09:44:33.742Z,8.50
2022-10-23T09:47:07.506Z,10.63
2022-10-23T09:49:35.303Z,9.50
2022-10-23T09:52:06.814Z,6.55
2022-10-23T09:54:35.129Z,7.53
2022-10-23T09:57:21.523Z,6.90
2022-10-23T09:59:55.876Z,8.40
2022-10-23T10:02:33.315Z,8.68
2022-10-23T10:05:01.115Z,5.83
2022-10-23T10:07:32.214Z,5.15
2022-10-23T10:10:02.502Z,10.32
2022-10-23T10:12:45.899Z,6.07
2022-10-23T10:15:13.750Z,6.35
2022-10-23T10:17:56.558Z,7.43
2022-10-23T10:20:42.670Z,4.97
2022-10-23T10:23:25.805Z,7.55
2022-10-23T10:25:57.836Z,8.38
2022-10-23T10:28:32.790Z,6.13
2022-10-23T10:31:19.366Z,6.40
2022-10-23T10:33:47.048Z,9.23
2022-10-23T10:36:14.751Z,7.53
2022-10-23T10:38:44.535Z,4.63
2022-10-23T10:41:16.152Z,7.63
2022-10-23T10:43:46.691Z,6.38
2022-10-23T10:46:17.604Z,9.83
2022-10-23T10:48:48.130Z,4.47
2022-10-23T10:51:19.467Z,7.00
2022-10-23T10:53:56.284Z,7.00
2022-10-23T10:56:24.206Z,5.17
2022-10-23T10:58:54.014Z,8.77
2022-10-23T11:01:45.099Z,12.82
2022-10-23T11:04:14.999Z,8.53
2022-10-23T11:06:42.723Z,7.47
2022-10-23T11:09:20.673Z,6.57
2022-10-23T11:11:48.881Z,5.40
2022-10-23T11:14:20.974Z,7.07
2022-10-23T11:16:49.408Z,3.80
2022-10-23T11:19:30.691Z,5.03
2022-10-23T11:21:58.316Z,7.37
2022-10-23T11:24:45.304Z,11.02
2022-10-23T11:27:21.569Z,10.80
2022-10-23T11:30:10.337Z,6.07
2022-10-23T11:32:43.866Z,5.38
2022-10-23T11:35:26.713Z,11.00
2022-10-23T11:37:58.565Z,4.10
2022-10-23T11:40:26.213Z,6.40
2022-10-23T11:42:54.362Z,6.38
2022-10-23T11:45:38.158Z,9.38
2022-10-23T11:48:06.621Z,8.37
2022-10-23T11:50:46.393Z,4.97
2022-10-23T11:53:27.524Z,8.15
2022-10-23T11:56:20.690Z,9.90
2022-10-23T11:58:51.885Z,6.25
2022-10-23T12:01:28.736Z,8.20
2022-10-23T12:03:59.601Z,6.68
2022-10-23T12:06:29.374Z,2.50
2022-10-23T12:09:00.818Z,9.48
2022-10-23T12:11:41.766Z,5.38
2022-10-23T12:14:27.979Z,3.47
2022-10-23T12:16:55.617Z,13.65
2022-10-23T12:19:23.956Z,8.43
2022-10-23T12:21:52.795Z,4.80
2022-10-23T12:24:26.596Z,7.80
2022-10-23T12:27:12.472Z,4.85
2022-10-23T12:29:52.198Z,13.00
2022-10-23T12:32:32.286Z,12.27
2022-10-23T12:35:18.523Z,3.20
2022-10-23T12:37:56.037Z,4.63
2022-10-23T12:40:29.896Z,6.60
2022-10-23T12:42:58.336Z,8.35
2022-10-23T12:45:27.470Z,8.95
2022-10-23T12:47:55.256Z,7.23
2022-10-23T12:50:23.977Z,4.72
2022-10-23T12:52:52.840Z,8.38
2022-10-23T12:55:20.756Z,9.20
2022-10-23T12:57:48.462Z,4.68
2022-10-23T13:00:17.366Z,6.65
2022-10-23T13:02:45.025Z,6.72
2022-10-23T13:05:13.884Z,6.13
2022-10-23T13:07:45.579Z,4.38
2022-10-23T13:10:19.935Z,3.28
2022-10-23T13:12:55.548Z,7.57
2022-10-23T13:15:23.392Z,9.43
2022-10-23T13:17:56.995Z,2.80
2022-10-23T13:20:26.633Z,7.72
2022-10-23T13:23:01.341Z,3.67
2022-10-23T13:25:32.674Z,5.03
2022-10-23T13:28:26.764Z,7.15
2022-10-23T13:31:00.701Z,4.17
2022-10-23T13:33:32.579Z,4.20
2022-10-23T13:36:01.061Z,7.10
2022-10-23T13:38:38.158Z,7.73
2022-10-23T13:41:06.298Z,4.55
2022-10-23T13:43:34.114Z,5.45
2022-10-23T13:46:02.014Z,4.03
2022-10-23T13:48:29.802Z,4.00
2022-10-23T13:51:02.928Z,4.05
2022-10-23T13:53:30.695Z,5.30
2022-10-23T13:55:58.817Z,5.57
2022-10-23T13:58:26.618Z,3.53
2022-10-23T14:00:54.543Z,3.97
2022-10-23T14:03:24.499Z,4.37
2022-10-23T14:05:52.418Z,3.88
2022-10-23T14:08:20.244Z,5.18
2022-10-23T14:10:47.974Z,5.28
2022-10-23T14:13:15.685Z,6.07
2022-10-23T14:15:43.346Z,7.65
2022-10-23T14:18:10.920Z,3.22
2022-10-23T14:20:39.542Z,3.87
2022-10-23T14:23:07.109Z,5.60
2022-10-23T14:25:34.781Z,5.28
2022-10-23T14:28:02.387Z,3.00
2022-10-23T14:30:30.045Z,9.98
2022-10-23T14:32:57.650Z,4.47
2022-10-23T14:35:25.780Z,5.07
2022-10-23T14:37:53.377Z,3.05
2022-10-23T14:40:21.049Z,7.45
2022-10-23T14:42:48.742Z,6.35
2022-10-23T14:45:16.572Z,4.80
2022-10-23T14:47:44.478Z,6.38
2022-10-23T14:50:12.643Z,2.65
2022-10-23T14:52:40.393Z,5.40
2022-10-23T14:55:08.298Z,6.25
2022-10-23T14:57:35.982Z,7.65
2022-10-23T15:00:03.642Z,5.70
2022-10-23T15:02:31.392Z,7.97
2022-10-23T15:04:59.048Z,3.45
2022-10-23T15:07:26.823Z,6.57
2022-10-23T15:09:55.643Z,5.70
2022-10-23T15:12:24.632Z,6.63
2022-10-23T15:14:52.290Z,6.90
2022-10-23T15:17:19.903Z,3.40
2022-10-23T15:19:47.553Z,3.47
2022-10-23T15:22:15.313Z,5.30
2022-10-23T15:24:43.009Z,5.38
2022-10-23T15:27:10.681Z,4.43
2022-10-23T15:29:38.396Z,7.32
2022-10-23T15:32:07.786Z,6.47
2022-10-23T15:34:36.411Z,3.73
2022-10-23T15:37:04.429Z,4.32
2022-10-23T15:39:35.788Z,12.02
2022-10-23T15:42:04.387Z,3.30
2022-10-23T15:44:32.165Z,8.43
2022-10-23T15:47:00.165Z,5.53
2022-10-23T15:49:29.646Z,5.43
2022-10-23T15:51:57.406Z,5.20
2022-10-23T15:54:28.160Z,4.43
2022-10-23T15:56:58.422Z,7.68
2022-10-23T15:59:26.227Z,5.60
2022-10-23T16:01:54.142Z,3.20
2022-10-23T16:04:22.069Z,4.60
2022-10-23T16:06:49.861Z,4.13
2022-10-23T16:09:17.654Z,4.13
2022-10-23T16:11:45.282Z,3.55
2022-10-23T16:14:14.273Z,9.35
2022-10-23T16:16:41.945Z,2.75
2022-10-23T16:19:10.518Z,3.60
2022-10-23T16:21:38.242Z,3.20
2022-10-23T16:24:06.620Z,4.40
2022-10-23T16:26:34.427Z,4.20
2022-10-23T16:29:03.159Z,3.90
2022-10-23T16:31:30.923Z,4.00
2022-10-23T16:34:01.603Z,4.85
2022-10-23T16:36:29.509Z,4.10
2022-10-23T16:38:57.137Z,6.78
2022-10-23T16:41:24.861Z,4.22
2022-10-23T16:43:52.522Z,3.45
2022-10-23T16:46:23.012Z,4.15
2022-10-23T16:48:53.526Z,4.50
2022-10-23T16:51:22.016Z,4.10
2022-10-23T16:53:49.711Z,6.10
2022-10-23T16:56:17.888Z,4.47
2022-10-23T16:58:45.638Z,7.72
2022-10-23T17:01:17.267Z,2.95
2022-10-23T17:03:47.967Z,6.85
2022-10-23T17:06:16.325Z,8.27
2022-10-23T17:08:44.001Z,11.18
2022-10-23T17:11:13.188Z,3.10
2022-10-23T17:13:43.186Z,5.57
2022-10-23T17:16:11.876Z,5.95
2022-10-23T17:18:42.895Z,4.95
2022-10-23T17:21:12.239Z,3.10
2022-10-23T17:23:39.866Z,3.97
2022-10-23T17:26:09.237Z,6.40
2022-10-23T17:28:43.560Z,6.40
2022-10-23T17:31:24.503Z,4.60
2022-10-23T17:33:53.582Z,4.45
2022-10-23T17:36:22.051Z,8.23
2022-10-23T17:38:49.862Z,5.23
2022-10-23T17:41:17.867Z,7.32
2022-10-23T17:43:45.604Z,4.25
2022-10-23T17:46:13.610Z,4.03
2022-10-23T17:48:44.763Z,4.65
2022-10-23T17:51:13.395Z,4.72
2022-10-23T17:53:41.935Z,5.60
2022-10-23T17:56:11.397Z,4.68
2022-10-23T17:58:39.030Z,2.13
2022-10-23T18:01:07.494Z,5.57
2022-10-23T18:03:35.995Z,5.10
2022-10-23T18:06:29.593Z,8.50
2022-10-23T18:09:00.896Z,2.92
2022-10-23T18:11:29.855Z,2.27
2022-10-23T18:16:25.610Z,4.53
2022-10-23T18:18:53.354Z,3.90
2022-10-23T18:21:22.405Z,3.90
2022-10-23T18:23:50.462Z,3.72
2022-10-23T18:26:25.548Z,3.40
2022-10-23T18:28:56.709Z,3.63
2022-10-23T18:31:26.288Z,3.92
2022-10-23T18:33:57.445Z,3.38
2022-10-23T18:36:26.222Z,3.13
2022-10-23T18:41:26.647Z,3.45
2022-10-23T18:43:57.350Z,2.80
2022-10-23T18:46:24.947Z,4.80
2022-10-23T18:48:52.599Z,6.45
2022-10-23T18:51:21.301Z,8.30
2022-10-23T18:53:49.213Z,3.97
2022-10-23T18:56:21.914Z,4.03
2022-10-23T18:58:53.538Z,3.90
2022-10-23T19:01:21.473Z,3.23
2022-10-23T19:03:49.234Z,5.60
2022-10-23T19:06:17.158Z,4.75
2022-10-23T19:08:45.017Z,1.70
2022-10-23T19:11:14.451Z,3.20
2022-10-23T19:13:44.742Z,4.30
2022-10-23T19:16:21.959Z,6.07
2022-10-23T19:18:54.063Z,5.83
2022-10-23T19:21:26.887Z,3.50
2022-10-23T19:23:57.896Z,8.82
2022-10-23T19:26:25.543Z,5.47
2022-10-23T19:31:26.605Z,3.58
2022-10-23T19:33:54.523Z,2.42
2022-10-23T19:36:23.358Z,5.18
2022-10-23T19:38:51.781Z,8.70
2022-10-23T19:41:20.897Z,4.53
2022-10-23T19:43:48.818Z,5.10
2022-10-23T19:46:19.214Z,4.43
2022-10-23T19:48:46.989Z,6.88
2022-10-23T19:51:15.851Z,5.47
2022-10-23T19:53:44.281Z,8.95
2022-10-23T19:56:12.525Z,3.33
2022-10-23T19:58:40.402Z,4.77
2022-10-23T20:01:09.362Z,4.63
2022-10-23T20:03:37.121Z,6.13
2022-10-23T20:06:04.946Z,6.35
2022-10-23T20:08:35.000Z,6.47
2022-10-23T20:11:02.982Z,5.32
2022-10-23T20:13:30.670Z,3.63
2022-10-23T20:15:58.349Z,9.67
2022-10-23T20:18:26.251Z,4.05
2022-10-23T20:20:54.234Z,5.63
2022-10-23T20:23:22.073Z,4.13
2022-10-23T20:25:49.838Z,6.78
2022-10-23T20:28:17.794Z,3.03
2022-10-23T20:30:46.216Z,6.95
2022-10-23T20:33:13.896Z,5.93
2022-10-23T20:35:42.056Z,5.25
2022-10-23T20:38:09.813Z,5.72
2022-10-23T20:40:37.533Z,2.93
2022-10-23T20:43:05.203Z,6.28
2022-10-23T20:45:32.952Z,4.57
2022-10-23T20:48:00.606Z,3.15
2022-10-23T20:50:28.368Z,3.58
2022-10-23T20:52:55.965Z,3.78
2022-10-23T20:55:23.632Z,6.70
2022-10-23T20:57:51.233Z,5.73
2022-10-23T21:00:18.893Z,6.43
2022-10-23T21:02:48.622Z,3.85
2022-10-23T21:05:19.107Z,7.57
2022-10-23T21:07:46.766Z,8.23
2022-10-23T21:10:14.415Z,8.52
2022-10-23T21:12:42.278Z,8.80
2022-10-23T21:15:10.394Z,5.57
2022-10-23T21:17:40.766Z,5.70
2022-10-23T21:20:08.530Z,5.82
2022-10-23T21:22:36.265Z,5.03
2022-10-23T21:25:03.903Z,6.60
2022-10-23T21:27:31.620Z,7.25
2022-10-23T21:29:59.232Z,8.47
2022-10-23T21:32:26.933Z,3.88
2022-10-23T21:34:55.259Z,6.28
2022-10-23T21:37:25.061Z,4.38
2022-10-23T21:39:52.710Z,11.88
2022-10-23T21:42:20.342Z,10.52
2022-10-23T21:44:48.045Z,4.30
2022-10-23T21:47:15.694Z,6.83
2022-10-23T21:49:43.534Z,4.30
2022-10-23T21:52:12.336Z,8.00
2022-10-23T21:54:40.852Z,2.87
2022-10-23T21:57:13.324Z,5.30
2022-10-23T21:59:41.054Z,5.75
2022-10-23T22:02:09.460Z,8.27
2022-10-23T22:04:38.006Z,7.68
2022-10-23T22:07:05.702Z,4.93
2022-10-23T22:09:33.623Z,6.78
2022-10-23T22:12:01.341Z,4.90
2022-10-23T22:14:28.995Z,6.43
2022-10-23T22:16:56.663Z,7.25
2022-10-23T22:19:24.338Z,5.23
2022-10-23T22:21:52.052Z,4.70
2022-10-23T22:24:19.687Z,6.75
2022-10-23T22:26:48.440Z,5.13
2022-10-23T22:29:17.018Z,5.55
2022-10-23T22:31:48.815Z,5.70
2022-10-23T22:34:48.236Z,4.47
2022-10-23T22:37:15.039Z,3.63
2022-10-23T22:39:42.703Z,3.85
2022-10-23T22:42:10.348Z,5.38
2022-10-23T22:44:38.023Z,6.73
2022-10-23T22:47:06.387Z,6.35
2022-10-23T22:49:34.114Z,11.45
2022-10-23T22:52:01.801Z,5.57
2022-10-23T22:54:31.411Z,6.03
2022-10-23T22:56:59.220Z,6.25
2022-10-23T22:59:26.840Z,3.42
2022-10-23T23:01:54.500Z,4.10
2022-10-23T23:04:38.560Z,7.93
2022-10-23T23:07:10.669Z,4.07
2022-10-23T23:09:39.057Z,5.20
2022-10-23T23:12:07.139Z,10.50
2022-10-23T23:14:34.738Z,6.75
2022-10-23T23:17:02.405Z,7.95
2022-10-23T23:19:30.184Z,3.22
2022-10-23T23:21:58.280Z,4.13
2022-10-23T23:24:26.170Z,3.20
2022-10-23T23:26:53.844Z,4.57
2022-10-23T23:29:21.922Z,5.55
2022-10-23T23:31:49.696Z,4.00
2022-10-23T23:34:17.368Z,2.90
2022-10-23T23:36:45.027Z,3.35
2022-10-23T23:39:12.837Z,4.82
2022-10-23T23:41:40.444Z,3.90
2022-10-23T23:44:08.573Z,5.88
2022-10-23T23:46:36.212Z,4.30
2022-10-23T23:49:03.920Z,2.67
2022-10-23T23:51:31.604Z,3.33
2022-10-23T23:53:59.191Z,5.88
2022-10-23T23:56:28.238Z,1.10
2022-10-23T23:58:55.838Z,3.00
